sensor_id;sensor_type;location;lat;lon;timestamp;P1;durP1;ratioP1;P2;durP2;ratioP2
71763;SDS011;59602;52.142;5.408;2023-11-19T00:02:22;12.40;;;2.35;;
71763;SDS011;59602;52.142;5.408;2023-11-19T00:04:48;8.27;;;2.00;;
71763;SDS011;59602;52.142;5.408;2023-11-19T00:07:15;12.15;;;2.22;;
71763;SDS011;59602;52.142;5.408;2023-11-19T00:09:44;11.67;;;1.97;;
71763;SDS011;59602;52.142;5.408;2023-11-19T00:12:10;6.13;;;1.67;;
71763;SDS011;59602;52.142;5.408;2023-11-19T00:14:37;10.13;;;1.88;;
71763;SDS011;59602;52.142;5.408;2023-11-19T00:17:04;8.80;;;1.77;;
71763;SDS011;59602;52.142;5.408;2023-11-19T00:19:30;7.00;;;1.73;;
71763;SDS011;59602;52.142;5.408;2023-11-19T00:21:57;7.50;;;1.77;;
71763;SDS011;59602;52.142;5.408;2023-11-19T00:24:29;9.95;;;1.58;;
71763;SDS011;59602;52.142;5.408;2023-11-19T00:26:56;9.18;;;1.77;;
71763;SDS011;59602;52.142;5.408;2023-11-19T00:29:23;9.52;;;1.63;;
71763;SDS011;59602;52.142;5.408;2023-11-19T00:31:50;9.07;;;1.63;;
71763;SDS011;59602;52.142;5.408;2023-11-19T00:34:16;11.00;;;2.10;;
71763;SDS011;59602;52.142;5.408;2023-11-19T00:36:47;9.20;;;1.20;;
71763;SDS011;59602;52.142;5.408;2023-11-19T00:39:15;11.73;;;1.83;;
71763;SDS011;59602;52.142;5.408;2023-11-19T00:41:42;6.32;;;1.23;;
71763;SDS011;59602;52.142;5.408;2023-11-19T00:44:08;6.75;;;1.20;;
71763;SDS011;59602;52.142;5.408;2023-11-19T00:46:35;13.77;;;1.00;;
71763;SDS011;59602;52.142;5.408;2023-11-19T00:49:03;9.73;;;1.38;;
71763;SDS011;59602;52.142;5.408;2023-11-19T00:51:30;12.73;;;1.40;;
71763;SDS011;59602;52.142;5.408;2023-11-19T00:53:58;10.45;;;1.08;;
71763;SDS011;59602;52.142;5.408;2023-11-19T00:56:25;9.27;;;1.20;;
71763;SDS011;59602;52.142;5.408;2023-11-19T00:58:52;13.00;;;1.20;;
71763;SDS011;59602;52.142;5.408;2023-11-19T01:01:18;13.38;;;0.88;;
71763;SDS011;59602;52.142;5.408;2023-11-19T01:03:45;11.18;;;1.35;;
71763;SDS011;59602;52.142;5.408;2023-11-19T01:06:12;19.33;;;1.70;;
71763;SDS011;59602;52.142;5.408;2023-11-19T01:08:42;14.55;;;1.90;;
71763;SDS011;59602;52.142;5.408;2023-11-19T01:11:18;12.27;;;1.23;;
71763;SDS011;59602;52.142;5.408;2023-11-19T01:13:47;11.55;;;1.10;;
71763;SDS011;59602;52.142;5.408;2023-11-19T01:16:14;14.40;;;1.20;;
71763;SDS011;59602;52.142;5.408;2023-11-19T01:18:41;11.43;;;1.10;;
71763;SDS011;59602;52.142;5.408;2023-11-19T01:21:07;18.83;;;1.30;;
71763;SDS011;59602;52.142;5.408;2023-11-19T01:23:35;22.23;;;1.43;;
71763;SDS011;59602;52.142;5.408;2023-11-19T01:26:02;13.13;;;1.48;;
71763;SDS011;59602;52.142;5.408;2023-11-19T01:28:29;15.02;;;1.73;;
71763;SDS011;59602;52.142;5.408;2023-11-19T01:30:57;15.57;;;1.05;;
71763;SDS011;59602;52.142;5.408;2023-11-19T01:33:23;13.27;;;1.63;;
71763;SDS011;59602;52.142;5.408;2023-11-19T01:35:51;19.67;;;1.80;;
71763;SDS011;59602;52.142;5.408;2023-11-19T01:38:17;21.17;;;1.65;;
71763;SDS011;59602;52.142;5.408;2023-11-19T01:40:44;20.58;;;1.77;;
71763;SDS011;59602;52.142;5.408;2023-11-19T01:43:10;16.08;;;1.45;;
71763;SDS011;59602;52.142;5.408;2023-11-19T01:45:37;13.50;;;1.08;;
71763;SDS011;59602;52.142;5.408;2023-11-19T01:48:05;11.53;;;1.60;;
71763;SDS011;59602;52.142;5.408;2023-11-19T01:50:33;17.15;;;1.40;;
71763;SDS011;59602;52.142;5.408;2023-11-19T01:53:00;17.60;;;1.60;;
71763;SDS011;59602;52.142;5.408;2023-11-19T01:55:27;18.25;;;1.75;;
71763;SDS011;59602;52.142;5.408;2023-11-19T01:57:54;14.23;;;1.67;;
71763;SDS011;59602;52.142;5.408;2023-11-19T02:00:26;15.97;;;1.83;;
71763;SDS011;59602;52.142;5.408;2023-11-19T02:02:53;13.63;;;1.30;;
71763;SDS011;59602;52.142;5.408;2023-11-19T02:05:21;19.00;;;2.03;;
71763;SDS011;59602;52.142;5.408;2023-11-19T02:07:47;14.40;;;1.17;;
71763;SDS011;59602;52.142;5.408;2023-11-19T02:10:16;20.35;;;1.65;;
71763;SDS011;59602;52.142;5.408;2023-11-19T02:12:45;21.17;;;1.60;;
71763;SDS011;59602;52.142;5.408;2023-11-19T02:15:12;15.55;;;1.23;;
71763;SDS011;59602;52.142;5.408;2023-11-19T02:17:39;19.13;;;1.45;;
71763;SDS011;59602;52.142;5.408;2023-11-19T02:20:06;20.15;;;1.77;;
71763;SDS011;59602;52.142;5.408;2023-11-19T02:22:35;19.95;;;1.98;;
71763;SDS011;59602;52.142;5.408;2023-11-19T02:25:04;16.67;;;1.70;;
71763;SDS011;59602;52.142;5.408;2023-11-19T02:27:40;21.48;;;1.77;;
71763;SDS011;59602;52.142;5.408;2023-11-19T02:30:24;20.20;;;2.13;;
71763;SDS011;59602;52.142;5.408;2023-11-19T02:32:53;23.55;;;2.05;;
71763;SDS011;59602;52.142;5.408;2023-11-19T02:35:24;17.38;;;1.33;;
71763;SDS011;59602;52.142;5.408;2023-11-19T02:37:52;18.80;;;1.30;;
71763;SDS011;59602;52.142;5.408;2023-11-19T02:40:19;17.00;;;1.40;;
71763;SDS011;59602;52.142;5.408;2023-11-19T02:42:45;20.35;;;1.90;;
71763;SDS011;59602;52.142;5.408;2023-11-19T02:45:12;18.90;;;1.88;;
71763;SDS011;59602;52.142;5.408;2023-11-19T02:47:41;19.40;;;2.00;;
71763;SDS011;59602;52.142;5.408;2023-11-19T02:50:10;24.37;;;1.90;;
71763;SDS011;59602;52.142;5.408;2023-11-19T02:52:42;21.40;;;2.35;;
71763;SDS011;59602;52.142;5.408;2023-11-19T02:55:10;17.33;;;2.25;;
71763;SDS011;59602;52.142;5.408;2023-11-19T02:57:39;23.58;;;2.13;;
71763;SDS011;59602;52.142;5.408;2023-11-19T03:00:15;22.85;;;1.60;;
71763;SDS011;59602;52.142;5.408;2023-11-19T03:02:43;22.07;;;1.53;;
71763;SDS011;59602;52.142;5.408;2023-11-19T03:05:13;16.75;;;1.40;;
71763;SDS011;59602;52.142;5.408;2023-11-19T03:07:41;15.82;;;1.80;;
71763;SDS011;59602;52.142;5.408;2023-11-19T03:10:10;20.25;;;1.27;;
71763;SDS011;59602;52.142;5.408;2023-11-19T03:12:40;24.08;;;2.55;;
71763;SDS011;59602;52.142;5.408;2023-11-19T03:15:07;21.53;;;1.87;;
71763;SDS011;59602;52.142;5.408;2023-11-19T03:17:36;19.05;;;2.33;;
71763;SDS011;59602;52.142;5.408;2023-11-19T03:20:05;20.10;;;1.90;;
71763;SDS011;59602;52.142;5.408;2023-11-19T03:22:33;17.92;;;1.73;;
71763;SDS011;59602;52.142;5.408;2023-11-19T03:25:00;21.77;;;1.85;;
71763;SDS011;59602;52.142;5.408;2023-11-19T03:27:27;21.57;;;1.50;;
71763;SDS011;59602;52.142;5.408;2023-11-19T03:29:54;19.55;;;1.50;;
71763;SDS011;59602;52.142;5.408;2023-11-19T03:32:20;24.17;;;2.50;;
71763;SDS011;59602;52.142;5.408;2023-11-19T03:34:47;21.48;;;2.03;;
71763;SDS011;59602;52.142;5.408;2023-11-19T03:37:13;23.05;;;1.83;;
71763;SDS011;59602;52.142;5.408;2023-11-19T03:39:43;26.60;;;1.83;;
71763;SDS011;59602;52.142;5.408;2023-11-19T03:42:10;26.60;;;2.03;;
71763;SDS011;59602;52.142;5.408;2023-11-19T03:44:39;21.63;;;1.63;;
71763;SDS011;59602;52.142;5.408;2023-11-19T03:47:06;23.55;;;2.28;;
71763;SDS011;59602;52.142;5.408;2023-11-19T03:49:32;24.52;;;2.22;;
71763;SDS011;59602;52.142;5.408;2023-11-19T03:51:59;21.33;;;2.10;;
71763;SDS011;59602;52.142;5.408;2023-11-19T03:54:26;20.10;;;2.38;;
71763;SDS011;59602;52.142;5.408;2023-11-19T03:56:53;20.10;;;1.52;;
71763;SDS011;59602;52.142;5.408;2023-11-19T03:59:20;25.75;;;1.88;;
71763;SDS011;59602;52.142;5.408;2023-11-19T04:01:47;20.90;;;1.77;;
71763;SDS011;59602;52.142;5.408;2023-11-19T04:04:13;21.53;;;2.17;;
71763;SDS011;59602;52.142;5.408;2023-11-19T04:06:40;20.20;;;2.17;;
71763;SDS011;59602;52.142;5.408;2023-11-19T04:09:07;20.15;;;2.50;;
71763;SDS011;59602;52.142;5.408;2023-11-19T04:11:35;19.13;;;2.20;;
71763;SDS011;59602;52.142;5.408;2023-11-19T04:14:02;19.23;;;2.17;;
71763;SDS011;59602;52.142;5.408;2023-11-19T04:16:28;26.23;;;2.63;;
71763;SDS011;59602;52.142;5.408;2023-11-19T04:18:55;18.65;;;1.85;;
71763;SDS011;59602;52.142;5.408;2023-11-19T04:21:22;20.98;;;2.25;;
71763;SDS011;59602;52.142;5.408;2023-11-19T04:23:49;25.05;;;1.90;;
71763;SDS011;59602;52.142;5.408;2023-11-19T04:26:16;22.95;;;2.50;;
71763;SDS011;59602;52.142;5.408;2023-11-19T04:28:42;17.20;;;2.53;;
71763;SDS011;59602;52.142;5.408;2023-11-19T04:31:09;23.58;;;1.35;;
71763;SDS011;59602;52.142;5.408;2023-11-19T04:33:36;27.52;;;2.63;;
71763;SDS011;59602;52.142;5.408;2023-11-19T04:36:02;26.88;;;2.67;;
71763;SDS011;59602;52.142;5.408;2023-11-19T04:38:29;19.67;;;2.17;;
71763;SDS011;59602;52.142;5.408;2023-11-19T04:40:56;24.70;;;1.93;;
71763;SDS011;59602;52.142;5.408;2023-11-19T04:43:23;22.05;;;2.30;;
71763;SDS011;59602;52.142;5.408;2023-11-19T04:45:50;18.27;;;1.55;;
71763;SDS011;59602;52.142;5.408;2023-11-19T04:48:17;26.45;;;3.10;;
71763;SDS011;59602;52.142;5.408;2023-11-19T04:50:44;23.90;;;2.10;;
71763;SDS011;59602;52.142;5.408;2023-11-19T04:53:11;20.47;;;1.70;;
71763;SDS011;59602;52.142;5.408;2023-11-19T04:55:38;25.42;;;2.33;;
71763;SDS011;59602;52.142;5.408;2023-11-19T04:58:04;19.90;;;1.95;;
71763;SDS011;59602;52.142;5.408;2023-11-19T05:00:31;25.15;;;2.25;;
71763;SDS011;59602;52.142;5.408;2023-11-19T05:02:58;22.95;;;2.55;;
71763;SDS011;59602;52.142;5.408;2023-11-19T05:05:25;20.87;;;1.70;;
71763;SDS011;59602;52.142;5.408;2023-11-19T05:07:52;20.17;;;1.55;;
71763;SDS011;59602;52.142;5.408;2023-11-19T05:10:18;27.35;;;2.05;;
71763;SDS011;59602;52.142;5.408;2023-11-19T05:12:46;18.35;;;1.98;;
71763;SDS011;59602;52.142;5.408;2023-11-19T05:15:12;19.40;;;2.13;;
71763;SDS011;59602;52.142;5.408;2023-11-19T05:17:40;24.23;;;1.80;;
71763;SDS011;59602;52.142;5.408;2023-11-19T05:20:07;21.23;;;2.05;;
71763;SDS011;59602;52.142;5.408;2023-11-19T05:22:40;23.95;;;1.98;;
71763;SDS011;59602;52.142;5.408;2023-11-19T05:25:08;26.38;;;2.42;;
71763;SDS011;59602;52.142;5.408;2023-11-19T05:27:36;23.48;;;2.42;;
71763;SDS011;59602;52.142;5.408;2023-11-19T05:30:04;20.87;;;2.27;;
71763;SDS011;59602;52.142;5.408;2023-11-19T05:32:33;21.30;;;1.88;;
71763;SDS011;59602;52.142;5.408;2023-11-19T05:35:00;22.20;;;1.30;;
71763;SDS011;59602;52.142;5.408;2023-11-19T05:37:27;26.08;;;2.05;;
71763;SDS011;59602;52.142;5.408;2023-11-19T05:39:55;21.80;;;2.08;;
71763;SDS011;59602;52.142;5.408;2023-11-19T05:42:22;21.00;;;1.97;;
71763;SDS011;59602;52.142;5.408;2023-11-19T05:44:49;21.00;;;2.10;;
71763;SDS011;59602;52.142;5.408;2023-11-19T05:47:16;22.02;;;2.22;;
71763;SDS011;59602;52.142;5.408;2023-11-19T05:49:43;19.25;;;2.15;;
71763;SDS011;59602;52.142;5.408;2023-11-19T05:52:10;24.92;;;1.70;;
71763;SDS011;59602;52.142;5.408;2023-11-19T05:54:38;18.93;;;1.93;;
71763;SDS011;59602;52.142;5.408;2023-11-19T05:57:05;21.67;;;2.38;;
71763;SDS011;59602;52.142;5.408;2023-11-19T05:59:35;22.77;;;1.80;;
71763;SDS011;59602;52.142;5.408;2023-11-19T06:02:03;19.20;;;1.92;;
71763;SDS011;59602;52.142;5.408;2023-11-19T06:04:29;24.75;;;1.85;;
71763;SDS011;59602;52.142;5.408;2023-11-19T06:06:56;20.57;;;1.77;;
71763;SDS011;59602;52.142;5.408;2023-11-19T06:09:23;22.98;;;2.20;;
71763;SDS011;59602;52.142;5.408;2023-11-19T06:11:50;22.17;;;2.40;;
71763;SDS011;59602;52.142;5.408;2023-11-19T06:14:18;22.30;;;1.25;;
71763;SDS011;59602;52.142;5.408;2023-11-19T06:16:45;22.63;;;2.08;;
71763;SDS011;59602;52.142;5.408;2023-11-19T06:19:11;22.87;;;1.90;;
71763;SDS011;59602;52.142;5.408;2023-11-19T06:21:38;26.10;;;2.13;;
71763;SDS011;59602;52.142;5.408;2023-11-19T06:24:05;22.60;;;1.88;;
71763;SDS011;59602;52.142;5.408;2023-11-19T06:26:31;21.27;;;1.48;;
71763;SDS011;59602;52.142;5.408;2023-11-19T06:28:58;24.55;;;2.55;;
71763;SDS011;59602;52.142;5.408;2023-11-19T06:31:25;23.80;;;2.00;;
71763;SDS011;59602;52.142;5.408;2023-11-19T06:33:51;25.60;;;2.47;;
71763;SDS011;59602;52.142;5.408;2023-11-19T06:36:18;21.00;;;2.08;;
71763;SDS011;59602;52.142;5.408;2023-11-19T06:38:45;21.15;;;1.80;;
71763;SDS011;59602;52.142;5.408;2023-11-19T06:41:13;21.48;;;1.90;;
71763;SDS011;59602;52.142;5.408;2023-11-19T06:43:40;22.17;;;1.93;;
71763;SDS011;59602;52.142;5.408;2023-11-19T06:46:16;22.80;;;1.67;;
71763;SDS011;59602;52.142;5.408;2023-11-19T06:48:43;24.63;;;2.00;;
71763;SDS011;59602;52.142;5.408;2023-11-19T06:51:10;17.30;;;1.75;;
71763;SDS011;59602;52.142;5.408;2023-11-19T06:53:38;28.20;;;1.70;;
71763;SDS011;59602;52.142;5.408;2023-11-19T06:56:17;25.87;;;2.17;;
71763;SDS011;59602;52.142;5.408;2023-11-19T06:58:45;24.92;;;2.30;;
71763;SDS011;59602;52.142;5.408;2023-11-19T07:01:11;20.73;;;1.50;;
71763;SDS011;59602;52.142;5.408;2023-11-19T07:03:38;22.75;;;1.85;;
71763;SDS011;59602;52.142;5.408;2023-11-19T07:06:05;20.00;;;1.65;;
71763;SDS011;59602;52.142;5.408;2023-11-19T07:08:31;21.77;;;1.80;;
71763;SDS011;59602;52.142;5.408;2023-11-19T07:10:58;24.88;;;1.65;;
71763;SDS011;59602;52.142;5.408;2023-11-19T07:13:25;24.88;;;1.75;;
71763;SDS011;59602;52.142;5.408;2023-11-19T07:15:55;18.92;;;1.85;;
71763;SDS011;59602;52.142;5.408;2023-11-19T07:18:22;17.67;;;2.13;;
71763;SDS011;59602;52.142;5.408;2023-11-19T07:20:48;18.73;;;2.23;;
71763;SDS011;59602;52.142;5.408;2023-11-19T07:23:15;21.83;;;2.55;;
71763;SDS011;59602;52.142;5.408;2023-11-19T07:25:43;25.98;;;2.42;;
71763;SDS011;59602;52.142;5.408;2023-11-19T07:28:13;21.08;;;1.92;;
71763;SDS011;59602;52.142;5.408;2023-11-19T07:30:40;21.42;;;2.45;;
71763;SDS011;59602;52.142;5.408;2023-11-19T07:33:07;26.47;;;2.17;;
71763;SDS011;59602;52.142;5.408;2023-11-19T07:35:34;18.65;;;2.22;;
71763;SDS011;59602;52.142;5.408;2023-11-19T07:38:01;21.50;;;1.60;;
71763;SDS011;59602;52.142;5.408;2023-11-19T07:40:29;21.27;;;1.77;;
71763;SDS011;59602;52.142;5.408;2023-11-19T07:42:56;20.75;;;2.00;;
71763;SDS011;59602;52.142;5.408;2023-11-19T07:45:23;19.73;;;1.60;;
71763;SDS011;59602;52.142;5.408;2023-11-19T07:47:49;20.42;;;2.10;;
71763;SDS011;59602;52.142;5.408;2023-11-19T07:50:17;18.02;;;2.20;;
71763;SDS011;59602;52.142;5.408;2023-11-19T07:52:46;21.85;;;1.63;;
71763;SDS011;59602;52.142;5.408;2023-11-19T07:55:13;19.60;;;1.48;;
71763;SDS011;59602;52.142;5.408;2023-11-19T07:57:39;19.73;;;1.73;;
71763;SDS011;59602;52.142;5.408;2023-11-19T08:00:06;17.63;;;2.28;;
71763;SDS011;59602;52.142;5.408;2023-11-19T08:02:33;21.48;;;1.95;;
71763;SDS011;59602;52.142;5.408;2023-11-19T09:48:52;19.88;;;1.65;;
71763;SDS011;59602;52.142;5.408;2023-11-19T09:54:26;20.33;;;2.00;;
71763;SDS011;59602;52.142;5.408;2023-11-19T09:57:07;20.48;;;1.70;;
71763;SDS011;59602;52.142;5.408;2023-11-19T09:59:58;18.45;;;1.45;;
71763;SDS011;59602;52.142;5.408;2023-11-19T10:03:08;16.15;;;1.90;;
71763;SDS011;59602;52.142;5.408;2023-11-19T10:05:40;26.05;;;2.30;;
71763;SDS011;59602;52.142;5.408;2023-11-19T14:15:44;15.23;;;1.10;;
71763;SDS011;59602;52.142;5.408;2023-11-19T14:18:33;16.58;;;1.30;;
71763;SDS011;59602;52.142;5.408;2023-11-19T14:21:04;12.17;;;1.33;;
71763;SDS011;59602;52.142;5.408;2023-11-19T14:26:29;14.73;;;1.60;;
71763;SDS011;59602;52.142;5.408;2023-11-19T14:29:18;17.35;;;3.55;;
71763;SDS011;59602;52.142;5.408;2023-11-19T14:32:36;12.18;;;0.80;;
71763;SDS011;59602;52.142;5.408;2023-11-19T15:36:07;14.93;;;1.17;;
71763;SDS011;59602;52.142;5.408;2023-11-19T15:49:43;19.63;;;1.60;;
71763;SDS011;59602;52.142;5.408;2023-11-19T15:52:22;11.48;;;1.13;;
71763;SDS011;59602;52.142;5.408;2023-11-19T15:59:37;10.80;;;1.00;;
71763;SDS011;59602;52.142;5.408;2023-11-19T16:02:51;16.00;;;1.30;;
71763;SDS011;59602;52.142;5.408;2023-11-19T16:05:40;14.50;;;0.97;;
71763;SDS011;59602;52.142;5.408;2023-11-19T16:12:26;11.30;;;1.30;;
71763;SDS011;59602;52.142;5.408;2023-11-19T16:15:43;11.20;;;0.95;;
71763;SDS011;59602;52.142;5.408;2023-11-19T16:18:55;11.85;;;1.33;;
71763;SDS011;59602;52.142;5.408;2023-11-19T16:22:30;11.20;;;1.23;;
71763;SDS011;59602;52.142;5.408;2023-11-19T16:29:18;18.13;;;1.23;;
71763;SDS011;59602;52.142;5.408;2023-11-19T16:32:57;13.65;;;0.88;;
71763;SDS011;59602;52.142;5.408;2023-11-19T16:47:27;12.65;;;0.85;;
71763;SDS011;59602;52.142;5.408;2023-11-19T16:51:25;12.35;;;0.70;;
71763;SDS011;59602;52.142;5.408;2023-11-19T16:54:07;12.88;;;1.40;;
